Main page
METAR-TAF:

Airports :

Podgorica, Montenegro

Podgorica Airport

latitude: 42-26N, longitude: 019-17E, elevation: 53 m

Current weather observation

The report was made 43 minutes ago, at 12:00 UTC
Wind 3 kt from variable directions
Temperature 12°C
Humidity 38%
Pressure 1025 hPa
Visibility 10 km or more
no clouds below 1500 m and no cumulonimbus

METAR: LYPG 071200Z VRB03KT CAVOK 12/M02 Q1025 NOSIG

Time: 13:43 (12:43 UTC)

Forecast

The report was made 1 hour and 43 minutes ago, at 11:00 UTC
Forecast valid from 07 at 12 UTC to 08 at 12 UTC
Wind 5 kt from the South/Southeast
Visibility 10 km or more
Few clouds at a height of 4000 ft
Scattered clouds at a height of 10000 ft

TAF: LYPG 071100Z 0712/0812 16005KT 9999 FEW040 SCT100 TX13/0713Z TN02/0806Z

METAR-TAF

Weather observations and forecasts of more than 4000 airports (METAR and TAF reports).

The available stations are represented by yellow and red dots on the map.

Hover mouse over dot to see the name of the station.

Then click to see weather observations and forecasts.

To change the map : click on the green buttons with a black cross to zoom in, on the green button with a dash to zoom out, or on the green arrows for adjacent maps.


METAR-TAF: